LFBD/BOD METAR and TAF weather

Enter ICAO airport designator
Station Type Date Time Source
LFBD METAR 2020/01/18 15:30 UTC NOAA

LFBD 181530Z AUTO 09013KT 040V110 CAVOK 08/04 Q1021 NOSIG


Station Type Date Time Source
LFBD Decoded METAR 2020/01/18 15:30 UTC NOAA

Bordeaux / Merignac, France (LFBD) 44-50N 000-42W 61M
Jan 18, 2020 - 10:30 AM EST / 2020.01.18 1530 UTC
Wind: from the E (090 degrees) at 15 MPH (13 KT) (direction variable):0
Visibility: greater than 7 mile(s):0
Temperature: 46 F (8 C)
Dew Point: 39 F (4 C)
Relative Humidity: 75%
Pressure (altimeter): 30.15 in. Hg (1021 hPa)
ob: LFBD 181530Z AUTO 09013KT 040V110 CAVOK 08/04 Q1021 NOSIG
cycle: 15

Station Type Date Time Source
LFBD TAF 2020/01/18 12:56 UTC NOAA

TAF
AMD LFBD 181245Z 1812/1918 11012KT CAVOK TX09/1813Z TN02/1907Z
TEMPO 1812/1815 11012G22KT SCT015 PROB30
TEMPO 1816/1820 -RA SCT015 OVC060
BECMG 1820/1822 04010KT
TEMPO 1903/1909 SCT010

Example: see airport list